createdAt,value
2018-08-17T00:01:00.764Z,55.90
2018-08-17T00:03:36.434Z,56.30
2018-08-17T00:06:12.871Z,57.00
2018-08-17T00:08:48.508Z,56.50
2018-08-17T00:11:23.695Z,56.60
2018-08-17T00:13:59.295Z,57.40
2018-08-17T00:16:35.375Z,57.80
2018-08-17T00:19:10.814Z,57.80
2018-08-17T00:21:46.178Z,58.70
2018-08-17T00:24:22.067Z,58.40
2018-08-17T00:26:57.840Z,58.20
2018-08-17T00:29:33.650Z,58.40
2018-08-17T00:32:09.757Z,58.60
2018-08-17T00:34:45.851Z,58.30
2018-08-17T00:37:21.325Z,58.50
2018-08-17T00:39:56.969Z,58.40
2018-08-17T00:42:32.292Z,58.50
2018-08-17T00:45:07.435Z,59.00
2018-08-17T00:47:48.697Z,59.50
2018-08-17T00:50:24.358Z,60.00
2018-08-17T00:52:59.443Z,59.50
2018-08-17T00:55:34.688Z,59.40
2018-08-17T00:58:10.589Z,59.50
2018-08-17T01:00:45.899Z,59.40
2018-08-17T01:03:20.710Z,59.30
2018-08-17T01:05:56.210Z,59.10
2018-08-17T01:08:30.983Z,59.00
2018-08-17T01:11:06.282Z,59.00
2018-08-17T01:13:41.113Z,58.90
2018-08-17T01:16:17.158Z,59.00
2018-08-17T01:18:53.143Z,59.20
2018-08-17T01:21:28.582Z,59.30
2018-08-17T01:24:04.175Z,59.60
2018-08-17T01:26:39.164Z,59.60
2018-08-17T01:29:14.345Z,59.60
2018-08-17T01:31:49.635Z,59.70
2018-08-17T01:34:24.574Z,59.60
2018-08-17T01:36:59.373Z,59.70
2018-08-17T01:39:34.813Z,59.70
2018-08-17T01:42:10.617Z,59.90
2018-08-17T01:44:45.427Z,60.10
2018-08-17T01:47:20.384Z,60.70
2018-08-17T01:49:55.044Z,60.80
2018-08-17T01:52:30.040Z,61.00
2018-08-17T01:55:06.697Z,61.10
2018-08-17T01:57:41.570Z,60.90
2018-08-17T02:00:17.361Z,61.10
2018-08-17T02:02:52.261Z,61.50
2018-08-17T02:05:27.388Z,61.70
2018-08-17T02:08:02.405Z,61.80
2018-08-17T02:10:37.582Z,61.80
2018-08-17T02:13:12.634Z,61.80
2018-08-17T02:15:47.344Z,62.50
2018-08-17T02:18:22.493Z,62.40
2018-08-17T02:20:58.062Z,62.40
2018-08-17T02:23:33.706Z,62.10
2018-08-17T02:26:08.610Z,62.30
2018-08-17T02:28:43.754Z,62.60
2018-08-17T02:31:19.147Z,62.80
2018-08-17T02:33:54.235Z,62.80
2018-08-17T02:36:29.008Z,63.10
2018-08-17T02:39:06.296Z,63.20
2018-08-17T02:41:41.704Z,63.40
2018-08-17T02:44:16.394Z,63.40
2018-08-17T02:46:51.578Z,63.30
2018-08-17T02:49:26.296Z,63.50
2018-08-17T02:52:01.759Z,63.80
2018-08-17T02:54:36.732Z,63.80
2018-08-17T02:57:11.525Z,64.00
2018-08-17T02:59:47.256Z,64.00
2018-08-17T03:02:22.402Z,64.20
2018-08-17T03:04:57.748Z,64.30
2018-08-17T03:07:33.050Z,64.20
2018-08-17T03:10:08.681Z,64.50
2018-08-17T03:12:43.671Z,64.90
2018-08-17T03:15:18.864Z,65.80
2018-08-17T03:17:53.630Z,65.10
2018-08-17T03:20:28.653Z,65.50
2018-08-17T03:23:03.618Z,65.80
2018-08-17T03:25:38.452Z,65.80
2018-08-17T03:28:13.232Z,65.70
2018-08-17T03:30:48.493Z,65.60
2018-08-17T03:33:23.522Z,66.10
2018-08-17T03:35:58.267Z,65.80
2018-08-17T03:38:33.283Z,65.70
2018-08-17T03:41:09.323Z,65.70
2018-08-17T03:43:44.409Z,65.60
2018-08-17T03:46:19.380Z,65.50
2018-08-17T03:48:54.954Z,65.70
2018-08-17T03:51:29.678Z,66.10
2018-08-17T03:54:04.473Z,66.00
2018-08-17T03:56:39.352Z,66.20
2018-08-17T03:59:14.074Z,66.40
2018-08-17T04:01:49.026Z,66.20
2018-08-17T04:04:24.314Z,66.50
2018-08-17T04:06:59.440Z,66.40
2018-08-17T04:09:34.504Z,66.50
2018-08-17T04:12:09.636Z,66.70
2018-08-17T04:14:44.407Z,66.90
2018-08-17T04:17:19.485Z,67.00
2018-08-17T04:19:54.808Z,66.90
2018-08-17T04:22:29.904Z,67.00
2018-08-17T04:25:05.049Z,67.10
2018-08-17T04:27:39.656Z,67.00
2018-08-17T04:30:15.017Z,67.00
2018-08-17T04:32:50.325Z,67.00
2018-08-17T04:35:25.260Z,67.10
2018-08-17T04:38:00.429Z,67.60
2018-08-17T04:40:35.337Z,67.50
2018-08-17T04:43:10.148Z,67.60
2018-08-17T04:45:45.056Z,67.50
2018-08-17T04:48:20.127Z,67.60
2018-08-17T04:50:55.059Z,67.80
2018-08-17T04:53:30.174Z,68.60
2018-08-17T04:56:05.212Z,69.10
2018-08-17T04:58:40.002Z,70.00
2018-08-17T05:01:14.822Z,69.10
2018-08-17T05:03:50.441Z,69.10
2018-08-17T05:06:25.497Z,68.50
2018-08-17T05:09:00.341Z,68.70
2018-08-17T05:11:36.056Z,68.60
2018-08-17T05:14:10.895Z,69.00
2018-08-17T05:16:46.073Z,68.90
2018-08-17T05:19:20.981Z,68.90
2018-08-17T05:21:55.822Z,68.80
2018-08-17T05:24:30.644Z,68.90
2018-08-17T05:27:05.977Z,69.00
2018-08-17T05:29:40.836Z,68.90
2018-08-17T05:32:15.734Z,68.70
2018-08-17T05:34:50.711Z,68.80
2018-08-17T05:37:25.643Z,69.40
2018-08-17T05:40:00.534Z,69.60
2018-08-17T05:42:35.902Z,69.20
2018-08-17T05:45:11.745Z,69.00
2018-08-17T05:47:46.722Z,68.80
2018-08-17T05:50:21.814Z,68.30
2018-08-17T05:52:58.083Z,68.50
2018-08-17T05:55:33.057Z,68.90
2018-08-17T05:58:08.938Z,68.40
2018-08-17T06:00:43.899Z,67.90
2018-08-17T06:03:19.242Z,67.90
2018-08-17T06:05:54.227Z,68.40
2018-08-17T06:08:29.145Z,67.80
2018-08-17T06:11:04.458Z,67.60
2018-08-17T06:13:40.068Z,66.80
2018-08-17T06:16:15.002Z,66.60
2018-08-17T06:18:50.114Z,66.50
2018-08-17T06:21:25.807Z,66.20
2018-08-17T06:24:00.699Z,65.70
2018-08-17T06:26:36.272Z,66.40
2018-08-17T06:29:11.874Z,65.50
2018-08-17T06:31:47.776Z,65.50
2018-08-17T06:34:23.494Z,64.80
2018-08-17T06:36:59.046Z,65.00
2018-08-17T06:39:34.706Z,64.90
2018-08-17T06:42:10.056Z,65.30
2018-08-17T06:44:45.976Z,65.70
2018-08-17T06:47:21.648Z,66.30
2018-08-17T06:49:56.872Z,65.30
2018-08-17T06:52:32.783Z,65.50
2018-08-17T06:55:09.582Z,65.00
2018-08-17T06:57:44.974Z,64.20
2018-08-17T07:00:20.634Z,63.20
2018-08-17T07:02:56.026Z,63.00
2018-08-17T07:05:31.545Z,63.50
2018-08-17T07:08:06.886Z,63.90
2018-08-17T07:10:42.608Z,64.50
2018-08-17T07:13:18.515Z,64.20
2018-08-17T07:15:54.630Z,64.10
2018-08-17T07:18:30.342Z,63.60
2018-08-17T07:21:05.721Z,64.10
2018-08-17T07:23:42.087Z,63.70
2018-08-17T07:26:17.584Z,63.80
2018-08-17T07:28:53.122Z,62.50
2018-08-17T07:31:29.243Z,62.60
2018-08-17T07:34:05.114Z,63.30
2018-08-17T07:36:40.713Z,62.30
2018-08-17T07:39:16.229Z,62.10
2018-08-17T07:41:51.519Z,62.00
2018-08-17T07:44:27.275Z,60.70
2018-08-17T07:47:03.469Z,59.90
2018-08-17T07:49:38.643Z,59.90
2018-08-17T07:52:14.529Z,58.20
2018-08-17T07:54:50.707Z,57.20
2018-08-17T07:57:26.597Z,56.20
2018-08-17T08:00:01.992Z,55.70
2018-08-17T08:02:38.306Z,55.10
2018-08-17T08:05:13.704Z,55.80
2018-08-17T08:07:49.450Z,55.00
2018-08-17T08:10:25.137Z,54.10
2018-08-17T08:13:00.738Z,53.50
2018-08-17T08:15:36.061Z,54.00
2018-08-17T08:18:12.086Z,52.30
2018-08-17T08:20:47.521Z,52.50
2018-08-17T08:23:25.057Z,51.60
2018-08-17T08:26:00.444Z,51.50
2018-08-17T08:28:36.134Z,50.70
2018-08-17T08:31:12.355Z,50.00
2018-08-17T08:33:47.846Z,49.30
2018-08-17T08:36:23.317Z,47.70
2018-08-17T08:38:58.761Z,47.90
2018-08-17T08:41:40.845Z,46.90
2018-08-17T08:44:16.739Z,46.30
2018-08-17T08:46:52.093Z,46.90
2018-08-17T08:49:27.694Z,44.10
2018-08-17T08:52:03.125Z,44.10
2018-08-17T08:54:38.305Z,44.80
2018-08-17T08:57:14.202Z,43.80
2018-08-17T08:59:49.607Z,41.90
2018-08-17T09:02:26.290Z,42.00
2018-08-17T09:05:05.971Z,41.40
2018-08-17T09:07:42.149Z,40.90
2018-08-17T09:10:18.157Z,39.40
2018-08-17T09:12:53.401Z,39.00
2018-08-17T09:15:29.170Z,37.40
2018-08-17T09:18:05.181Z,38.80
2018-08-17T09:20:40.346Z,37.10
2018-08-17T09:23:16.080Z,35.10
2018-08-17T09:25:51.054Z,35.90
2018-08-17T09:28:26.101Z,37.00
2018-08-17T09:31:01.209Z,33.80
2018-08-17T09:33:36.899Z,35.60
2018-08-17T09:36:12.110Z,35.20
2018-08-17T09:38:47.364Z,34.00
2018-08-17T09:41:22.467Z,34.30
2018-08-17T09:43:57.978Z,32.80
2018-08-17T09:46:33.230Z,32.40
2018-08-17T09:49:08.280Z,32.10
2018-08-17T09:51:43.447Z,32.20
2018-08-17T09:54:19.245Z,30.40
2018-08-17T09:56:54.214Z,31.80
2018-08-17T09:59:29.309Z,31.90
2018-08-17T10:02:09.670Z,31.30
2018-08-17T10:04:50.193Z,29.60
2018-08-17T10:07:30.426Z,29.70
2018-08-17T10:10:12.065Z,29.50
2018-08-17T10:12:49.196Z,30.00
2018-08-17T10:15:24.548Z,29.50
2018-08-17T10:17:59.846Z,30.80
2018-08-17T10:20:34.911Z,31.90
2018-08-17T10:23:14.982Z,31.60
2018-08-17T10:25:50.361Z,30.90
2018-08-17T10:28:25.506Z,30.60
2018-08-17T10:31:01.169Z,30.20
2018-08-17T10:33:37.634Z,30.00
2018-08-17T10:36:12.619Z,30.00
2018-08-17T10:38:54.537Z,29.90
2018-08-17T10:41:30.498Z,29.10
2018-08-17T10:44:05.853Z,29.00
2018-08-17T10:46:41.949Z,27.80
2018-08-17T10:49:18.866Z,28.30
2018-08-17T10:51:56.782Z,28.40
2018-08-17T10:54:31.870Z,28.90
2018-08-17T10:57:07.105Z,27.30
2018-08-17T10:59:45.075Z,27.80
2018-08-17T11:02:19.999Z,28.10
2018-08-17T11:04:55.104Z,28.50
2018-08-17T11:07:35.583Z,28.30
2018-08-17T11:10:11.796Z,25.90
2018-08-17T11:12:47.525Z,27.20
2018-08-17T11:15:22.851Z,27.60
2018-08-17T11:17:58.089Z,27.40
2018-08-17T11:20:33.174Z,27.30
2018-08-17T11:23:08.954Z,27.40
2018-08-17T11:25:44.181Z,28.00
2018-08-17T11:28:19.555Z,30.80
2018-08-17T11:30:54.531Z,32.30
2018-08-17T11:33:31.572Z,32.10
2018-08-17T11:36:09.760Z,32.40
2018-08-17T11:38:44.810Z,31.60
2018-08-17T11:41:20.015Z,31.10
2018-08-17T11:43:58.671Z,30.80
2018-08-17T11:46:33.914Z,30.70
2018-08-17T11:49:09.045Z,30.80
2018-08-17T11:51:44.517Z,32.10
2018-08-17T11:54:19.881Z,32.80
2018-08-17T11:56:54.925Z,32.50
2018-08-17T11:59:30.287Z,33.60
2018-08-17T12:02:05.376Z,35.00
2018-08-17T12:04:41.836Z,35.60
2018-08-17T12:07:17.221Z,36.30
2018-08-17T12:10:08.147Z,36.80
2018-08-17T12:12:44.181Z,36.90
2018-08-17T12:15:19.863Z,37.40
2018-08-17T12:17:55.682Z,37.70
2018-08-17T12:20:31.225Z,38.30
2018-08-17T12:23:06.503Z,39.30
2018-08-17T12:25:49.278Z,39.80
2018-08-17T12:28:26.090Z,39.40
2018-08-17T12:31:04.220Z,39.50
2018-08-17T12:33:39.653Z,40.00
2018-08-17T12:36:15.213Z,40.50
2018-08-17T12:38:50.652Z,40.80
2018-08-17T12:41:26.814Z,40.50
2018-08-17T12:44:02.261Z,40.90
2018-08-17T12:46:37.495Z,41.30
2018-08-17T12:49:13.035Z,41.40
2018-08-17T12:51:48.627Z,43.10
2018-08-17T12:54:28.213Z,46.80
2018-08-17T12:57:04.809Z,47.40
2018-08-17T12:59:40.238Z,50.80
2018-08-17T13:02:15.528Z,57.10
2018-08-17T13:04:50.904Z,62.10
2018-08-17T13:07:26.383Z,65.90
2018-08-17T13:10:01.718Z,67.30
2018-08-17T13:12:37.259Z,70.90
2018-08-17T13:15:12.560Z,73.00
2018-08-17T13:17:48.010Z,73.50
2018-08-17T13:20:23.320Z,74.60
2018-08-17T13:22:59.345Z,74.70
2018-08-17T13:25:35.421Z,74.40
2018-08-17T13:28:11.640Z,74.90
2018-08-17T13:30:47.362Z,76.20
2018-08-17T13:33:22.820Z,77.90
2018-08-17T13:35:58.632Z,77.20
2018-08-17T13:38:34.054Z,74.60
2018-08-17T13:41:10.581Z,77.50
2018-08-17T13:43:45.954Z,79.20
2018-08-17T13:46:21.369Z,80.10
2018-08-17T13:48:56.817Z,79.30
2018-08-17T13:51:32.729Z,80.20
2018-08-17T13:54:08.902Z,76.90
2018-08-17T13:56:44.216Z,81.50
2018-08-17T13:59:26.381Z,81.40
2018-08-17T14:02:01.779Z,82.10
2018-08-17T14:04:37.513Z,82.40
2018-08-17T14:07:13.016Z,85.00
2018-08-17T14:09:48.493Z,83.70
2018-08-17T14:12:23.920Z,84.00
2018-08-17T14:14:59.486Z,84.50
2018-08-17T14:17:35.114Z,84.50
2018-08-17T14:20:13.438Z,84.40
2018-08-17T14:22:49.565Z,84.10
2018-08-17T14:25:24.976Z,82.70
2018-08-17T14:28:01.552Z,82.70
2018-08-17T14:30:36.784Z,83.00
2018-08-17T14:33:16.802Z,84.60
2018-08-17T14:35:52.289Z,84.30
2018-08-17T14:38:34.312Z,83.70
2018-08-17T14:41:09.706Z,87.10
2018-08-17T14:43:45.085Z,83.00
2018-08-17T14:46:20.633Z,81.90
2018-08-17T14:48:56.848Z,82.80
2018-08-17T14:51:32.362Z,81.60
2018-08-17T14:54:08.339Z,81.80
2018-08-17T14:56:44.875Z,83.70
2018-08-17T14:59:20.108Z,82.90
2018-08-17T15:01:55.597Z,83.00
2018-08-17T15:04:31.286Z,83.90
2018-08-17T15:07:06.974Z,84.80
2018-08-17T15:09:42.519Z,83.40
2018-08-17T15:12:18.714Z,82.80
2018-08-17T15:14:54.234Z,81.60
2018-08-17T15:17:30.217Z,80.70
2018-08-17T15:20:06.273Z,82.10
2018-08-17T15:22:41.772Z,80.90
2018-08-17T15:25:16.954Z,79.50
2018-08-17T15:27:52.598Z,78.10
2018-08-17T15:30:28.101Z,80.30
2018-08-17T15:33:03.386Z,80.10
2018-08-17T15:35:39.447Z,79.50
2018-08-17T15:38:14.760Z,79.80
2018-08-17T15:40:50.909Z,79.50
2018-08-17T15:43:26.824Z,79.80
2018-08-17T15:46:02.529Z,76.30
2018-08-17T15:48:43.520Z,75.00
2018-08-17T15:51:19.042Z,79.20
2018-08-17T15:53:54.447Z,80.80
2018-08-17T15:56:29.986Z,80.40
2018-08-17T15:59:05.546Z,81.10
2018-08-17T16:01:41.118Z,79.70
2018-08-17T16:04:16.745Z,79.60
2018-08-17T16:06:52.229Z,79.70
2018-08-17T16:09:27.746Z,79.30
2018-08-17T16:12:03.275Z,79.90
2018-08-17T16:14:38.955Z,78.00
2018-08-17T16:17:15.025Z,78.40
2018-08-17T16:19:50.810Z,79.60
2018-08-17T16:22:26.727Z,78.20
2018-08-17T16:25:02.296Z,78.70
2018-08-17T16:27:37.679Z,79.60
2018-08-17T16:30:15.159Z,82.30
2018-08-17T16:32:51.073Z,78.20
2018-08-17T16:35:26.238Z,77.60
2018-08-17T16:38:02.021Z,77.30
2018-08-17T16:40:42.162Z,74.70
2018-08-17T16:43:23.141Z,73.90
2018-08-17T16:45:58.793Z,73.50
2018-08-17T16:48:34.963Z,75.10
2018-08-17T16:51:10.806Z,74.10
2018-08-17T16:53:46.680Z,76.10
2018-08-17T16:56:23.053Z,75.50
2018-08-17T16:58:58.782Z,73.90
2018-08-17T17:01:34.360Z,74.40
2018-08-17T17:04:10.197Z,75.80
2018-08-17T17:06:45.802Z,76.60
2018-08-17T17:09:21.141Z,76.40
2018-08-17T17:11:57.040Z,75.90
2018-08-17T17:14:32.582Z,75.00
2018-08-17T17:17:08.126Z,75.00
2018-08-17T17:19:43.599Z,76.20
2018-08-17T17:22:19.535Z,75.70
2018-08-17T17:24:59.796Z,76.00
2018-08-17T17:27:35.254Z,77.20
2018-08-17T17:30:10.589Z,76.80
2018-08-17T17:32:45.843Z,76.30
2018-08-17T17:35:21.798Z,76.50
2018-08-17T17:37:57.242Z,77.10
2018-08-17T17:40:32.988Z,78.00
2018-08-17T17:43:08.735Z,78.90
2018-08-17T17:45:44.299Z,77.80
2018-08-17T17:48:19.899Z,78.20
2018-08-17T17:50:55.383Z,78.90
2018-08-17T17:53:30.922Z,80.00
2018-08-17T17:56:06.229Z,80.90
2018-08-17T17:58:42.038Z,80.70
2018-08-17T18:01:17.536Z,81.00
2018-08-17T18:03:53.069Z,79.90
2018-08-17T18:06:28.497Z,80.40
2018-08-17T18:09:05.963Z,79.30
2018-08-17T18:11:41.204Z,79.10
2018-08-17T18:14:16.660Z,80.00
2018-08-17T18:16:52.009Z,80.50
2018-08-17T18:19:27.671Z,81.50
2018-08-17T18:22:03.459Z,81.70
2018-08-17T18:24:45.809Z,81.90
2018-08-17T18:27:21.319Z,82.20
2018-08-17T18:29:56.821Z,82.60
2018-08-17T18:32:32.313Z,82.30
2018-08-17T18:35:08.234Z,81.50
2018-08-17T18:37:43.990Z,81.10
2018-08-17T18:40:19.447Z,81.20
2018-08-17T18:42:55.152Z,80.20
2018-08-17T18:45:30.770Z,79.80
2018-08-17T18:48:06.289Z,80.60
2018-08-17T18:50:41.952Z,80.20
2018-08-17T18:53:17.619Z,79.90
2018-08-17T18:55:53.269Z,79.40
2018-08-17T18:58:28.604Z,79.80
2018-08-17T19:01:04.373Z,79.60
2018-08-17T19:03:39.820Z,80.20
2018-08-17T19:06:15.017Z,81.60
2018-08-17T19:08:50.753Z,82.60
2018-08-17T19:11:25.921Z,81.90
2018-08-17T19:14:00.890Z,82.50
2018-08-17T19:16:35.998Z,82.40
2018-08-17T19:19:11.737Z,83.10
2018-08-17T19:21:47.224Z,83.60
2018-08-17T19:24:22.834Z,83.60
2018-08-17T19:26:57.846Z,82.90
2018-08-17T19:29:33.168Z,82.50
2018-08-17T19:32:09.004Z,81.90
2018-08-17T19:34:44.475Z,82.00
2018-08-17T19:37:19.356Z,82.20
2018-08-17T19:39:54.792Z,82.80
2018-08-17T19:42:29.869Z,83.80
2018-08-17T19:45:05.846Z,83.90
2018-08-17T19:47:40.746Z,84.00
2018-08-17T19:50:16.332Z,84.60
2018-08-17T19:52:51.345Z,83.90
2018-08-17T19:55:26.880Z,84.40
2018-08-17T19:58:02.112Z,84.40
2018-08-17T20:00:37.499Z,84.70
2018-08-17T20:03:12.499Z,85.10
2018-08-17T20:05:48.323Z,84.90
2018-08-17T20:08:24.831Z,84.70
2018-08-17T20:11:00.442Z,84.70
2018-08-17T20:13:35.880Z,84.80
2018-08-17T20:16:16.241Z,84.10
2018-08-17T20:18:51.782Z,83.80
2018-08-17T20:21:27.210Z,83.80
2018-08-17T20:24:02.842Z,83.10
2018-08-17T20:26:37.970Z,82.90
2018-08-17T20:29:13.387Z,82.70
2018-08-17T20:31:49.725Z,84.50
2018-08-17T20:34:24.822Z,85.30
2018-08-17T20:36:59.849Z,84.80
2018-08-17T20:39:35.121Z,84.90
2018-08-17T20:42:11.169Z,85.10
2018-08-17T20:44:46.742Z,84.70
2018-08-17T20:47:22.175Z,85.30
2018-08-17T20:49:57.538Z,85.60
2018-08-17T20:52:33.176Z,85.70
2018-08-17T20:55:09.271Z,85.60
2018-08-17T20:57:44.605Z,86.00
2018-08-17T21:00:20.809Z,86.00
2018-08-17T21:02:56.935Z,85.10
2018-08-17T21:05:32.176Z,85.50
2018-08-17T21:08:07.642Z,85.70
2018-08-17T21:10:43.221Z,85.90
2018-08-17T21:13:18.117Z,86.40
2018-08-17T21:15:52.802Z,86.10
2018-08-17T21:18:28.393Z,86.80
2018-08-17T21:21:04.107Z,88.00
2018-08-17T21:23:39.374Z,87.00
2018-08-17T21:26:14.405Z,87.40
2018-08-17T21:28:49.183Z,87.60
2018-08-17T21:31:25.437Z,87.20
2018-08-17T21:34:00.565Z,86.40
2018-08-17T21:36:36.036Z,86.30
2018-08-17T21:39:13.367Z,86.50
2018-08-17T21:41:49.104Z,86.40
2018-08-17T21:44:23.901Z,85.50
2018-08-17T21:47:03.921Z,85.80
2018-08-17T21:49:38.488Z,87.30
2018-08-17T21:52:24.836Z,86.50
2018-08-17T21:55:00.338Z,87.10
2018-08-17T21:57:35.448Z,87.70
2018-08-17T22:00:12.931Z,87.90
2018-08-17T22:02:48.589Z,89.00
2018-08-17T22:05:30.881Z,89.00
2018-08-17T22:08:05.755Z,87.90
2018-08-17T22:10:41.607Z,87.40
2018-08-17T22:13:29.511Z,88.70
2018-08-17T22:16:04.649Z,88.90
2018-08-17T22:18:39.548Z,88.70
2018-08-17T22:21:14.595Z,88.80
2018-08-17T22:23:50.626Z,89.00
2018-08-17T22:26:25.583Z,88.70
2018-08-17T22:29:00.714Z,88.50
2018-08-17T22:31:38.625Z,88.10
2018-08-17T22:34:13.887Z,88.20
2018-08-17T22:36:48.613Z,87.90
2018-08-17T22:39:23.805Z,87.80
2018-08-17T22:41:58.778Z,87.60
2018-08-17T22:44:33.682Z,87.60
2018-08-17T22:47:14.966Z,88.10
2018-08-17T22:49:50.487Z,88.20
2018-08-17T22:52:25.297Z,88.30
2018-08-17T22:55:01.245Z,88.50
2018-08-17T22:57:36.349Z,89.00
2018-08-17T23:00:23.701Z,89.30
2018-08-17T23:02:59.903Z,90.00
2018-08-17T23:05:36.790Z,89.60
2018-08-17T23:08:11.681Z,89.00
2018-08-17T23:10:46.606Z,89.60
2018-08-17T23:13:21.358Z,89.80
2018-08-17T23:15:57.130Z,90.10
2018-08-17T23:18:31.915Z,90.00
2018-08-17T23:21:06.601Z,90.10
2018-08-17T23:23:41.497Z,90.70
2018-08-17T23:26:16.451Z,90.30
2018-08-17T23:28:51.267Z,90.10
2018-08-17T23:31:26.205Z,90.00
2018-08-17T23:34:00.983Z,90.00
2018-08-17T23:36:35.942Z,90.10
2018-08-17T23:39:11.453Z,90.10
2018-08-17T23:41:46.490Z,90.50
2018-08-17T23:44:21.298Z,90.30
2018-08-17T23:46:56.106Z,90.20
2018-08-17T23:49:31.466Z,90.20
2018-08-17T23:52:06.505Z,90.20
2018-08-17T23:54:41.652Z,90.20
2018-08-17T23:57:16.667Z,90.40
2018-08-17T23:59:51.680Z,90.50
